Time;durP1;ratioP1;P1;durP2;ratioP2;P2;SDS_P1;SDS_P2;PMS_P1;PMS_P2;Temp;Humidity;BMP_temperature;BMP_pressure;BME280_temperature;BME280_humidity;BME280_pressure;Samples;Min_cycle;Max_cycle;Signal;HPM_P1;HPM_P2
2023/08/10 03:30:15;;;;;;;9.07;8.77;;;9.90;99.90;;;;;;5998798;22;20226;-77
2023/08/10 03:32:43;;;;;;;8.83;8.60;;;9.90;99.90;;;;;;6347503;22;20188;-77
2023/08/10 03:35:10;;;;;;;8.97;8.70;;;9.90;99.90;;;;;;6349548;22;20278;-78
2023/08/10 03:37:37;;;;;;;9.40;9.10;;;9.90;99.90;;;;;;6365145;22;20200;-80
2023/08/10 03:40:06;;;;;;;9.30;9.00;;;9.90;99.90;;;;;;6367695;22;20228;-80
2023/08/10 03:42:34;;;;;;;9.93;9.63;;;9.90;99.90;;;;;;6366943;22;20219;-80
2023/08/10 03:45:02;;;;;;;9.60;9.30;;;9.90;99.90;;;;;;6368527;22;20219;-79
2023/08/10 03:47:30;;;;;;;9.80;9.50;;;9.80;99.90;;;;;;6367929;22;20207;-79
2023/08/10 03:49:57;;;;;;;9.87;9.57;;;9.80;99.90;;;;;;6367863;22;20185;-80
2023/08/10 03:52:25;;;;;;;9.93;9.63;;;9.80;99.90;;;;;;6367524;22;20196;-80
2023/08/10 03:54:53;;;;;;;9.67;9.37;;;9.70;99.90;;;;;;6368307;22;20180;-79
2023/08/10 03:57:20;;;;;;;9.73;9.43;;;9.60;99.90;;;;;;6367925;22;20204;-80
2023/08/10 03:59:47;;;;;;;9.67;9.37;;;9.60;99.90;;;;;;6368443;22;20195;-79
2023/08/10 04:02:14;;;;;;;9.53;9.23;;;9.60;99.90;;;;;;6369377;22;20184;-80
2023/08/10 04:04:43;;;;;;;9.30;9.00;;;9.50;99.90;;;;;;6369771;22;20192;-79
2023/08/10 04:07:10;;;;;;;9.53;9.23;;;9.50;99.90;;;;;;6367170;22;20199;-79
2023/08/10 04:09:37;;;;;;;9.63;9.33;;;9.50;99.90;;;;;;6368590;22;20191;-80
2023/08/10 04:12:05;;;;;;;9.30;9.00;;;9.50;99.90;;;;;;6368949;22;20196;-80
2023/08/10 04:14:32;;;;;;;9.33;9.03;;;9.50;99.90;;;;;;6369074;22;20187;-80
2023/08/10 04:16:59;;;;;;;9.20;8.90;;;9.50;99.90;;;;;;6369035;22;20196;-79
2023/08/10 04:19:27;;;;;;;9.43;9.13;;;9.50;99.90;;;;;;6369285;22;20261;-80
2023/08/10 04:21:56;;;;;;;9.17;8.87;;;9.50;99.90;;;;;;6367952;22;20207;-80
2023/08/10 04:24:23;;;;;;;9.47;9.17;;;9.60;99.90;;;;;;6367379;22;20201;-81
2023/08/10 04:26:50;;;;;;;9.47;9.17;;;9.60;99.90;;;;;;6366651;22;20211;-80
2023/08/10 04:29:17;;;;;;;9.80;9.50;;;9.60;99.90;;;;;;6368631;22;20188;-80
2023/08/10 04:31:44;;;;;;;9.90;9.60;;;9.60;99.90;;;;;;6368383;22;20208;-80
2023/08/10 04:34:11;;;;;;;9.63;9.33;;;9.60;99.90;;;;;;6367978;22;20192;-80
2023/08/10 04:36:38;;;;;;;10.00;9.70;;;9.60;99.90;;;;;;6368916;22;20259;-80
2023/08/10 04:39:07;;;;;;;9.80;9.50;;;9.70;99.90;;;;;;6368231;22;20211;-80
2023/08/10 04:41:34;;;;;;;9.67;9.37;;;9.70;99.90;;;;;;6369229;22;20196;-80
2023/08/10 04:44:01;;;;;;;9.60;9.30;;;9.70;99.90;;;;;;6368085;22;20196;-80
2023/08/10 04:46:28;;;;;;;9.40;9.10;;;9.70;99.90;;;;;;6366572;22;20231;-80
2023/08/10 04:48:55;;;;;;;9.17;8.87;;;9.70;99.90;;;;;;6369466;22;20187;-80
2023/08/10 04:51:22;;;;;;;9.07;8.77;;;9.70;99.90;;;;;;6366861;22;21157;-81
2023/08/10 04:53:49;;;;;;;9.30;9.00;;;9.70;99.90;;;;;;6367091;22;20196;-80
2023/08/10 04:56:18;;;;;;;9.23;8.93;;;9.70;99.90;;;;;;6357068;22;20196;-80
2023/08/10 04:58:45;;;;;;;9.40;9.10;;;9.70;99.90;;;;;;6354249;22;20196;-80
2023/08/10 05:01:13;;;;;;;9.10;8.80;;;9.70;99.90;;;;;;6353729;22;20204;-80
2023/08/10 05:03:40;;;;;;;9.10;8.80;;;9.80;99.90;;;;;;6353461;22;20208;-80
2023/08/10 05:06:08;;;;;;;8.70;8.50;;;9.80;99.90;;;;;;6354543;22;20194;-80
2023/08/10 05:08:35;;;;;;;8.60;8.40;;;9.90;99.90;;;;;;6354121;22;20189;-81
2023/08/10 05:11:02;;;;;;;8.70;8.50;;;9.90;99.90;;;;;;6353647;22;20287;-80
2023/08/10 05:13:30;;;;;;;8.77;8.57;;;10.00;99.90;;;;;;6349916;22;20192;-79
2023/08/10 05:15:57;;;;;;;8.53;8.33;;;10.00;99.90;;;;;;6349482;22;20200;-79
2023/08/10 05:18:24;;;;;;;8.40;8.20;;;10.10;99.90;;;;;;6350519;22;20192;-79
2023/08/10 05:20:51;;;;;;;8.47;8.27;;;10.20;99.90;;;;;;6349606;22;20279;-80
2023/08/10 05:23:18;;;;;;;8.67;8.47;;;10.20;99.90;;;;;;6351374;22;20203;-79
2023/08/10 05:25:46;;;;;;;8.47;8.27;;;10.30;99.90;;;;;;6351989;22;20192;-79
2023/08/10 05:28:13;;;;;;;8.70;8.50;;;10.30;99.90;;;;;;6351377;22;20216;-79
2023/08/10 05:30:41;;;;;;;8.40;8.20;;;10.40;99.90;;;;;;6350789;22;20200;-79
2023/08/10 05:33:08;;;;;;;8.53;8.33;;;10.40;99.90;;;;;;6357941;22;20208;-79
2023/08/10 05:35:36;;;;;;;8.60;8.40;;;10.50;99.90;;;;;;6348744;22;20287;-80
2023/08/10 05:38:04;;;;;;;8.93;8.63;;;10.50;99.90;;;;;;6349705;22;20204;-80
2023/08/10 05:40:31;;;;;;;9.00;8.70;;;10.60;99.90;;;;;;6351302;22;20230;-79
2023/08/10 05:42:58;;;;;;;8.67;8.47;;;10.60;99.90;;;;;;6351931;22;20248;-79
2023/08/10 05:45:27;;;;;;;8.20;8.00;;;10.70;99.90;;;;;;6351102;22;20287;-79
2023/08/10 05:47:56;;;;;;;8.50;8.30;;;10.80;99.90;;;;;;6351969;22;20238;-79
2023/08/10 05:50:23;;;;;;;8.07;7.87;;;10.90;99.90;;;;;;6350936;22;20257;-80
2023/08/10 05:52:50;;;;;;;8.40;8.20;;;11.00;99.90;;;;;;6352405;22;20203;-80
2023/08/10 05:55:20;;;;;;;8.00;7.80;;;11.10;99.90;;;;;;6352124;22;20191;-79
2023/08/10 05:57:47;;;;;;;8.10;7.90;;;11.20;99.90;;;;;;6353578;22;20252;-79
2023/08/10 06:00:16;;;;;;;8.30;8.10;;;11.30;99.90;;;;;;6372367;22;20211;-79
2023/08/10 06:02:45;;;;;;;8.10;7.90;;;11.40;99.90;;;;;;6372626;22;20240;-79
2023/08/10 06:05:14;;;;;;;8.20;8.00;;;11.60;99.90;;;;;;6372679;22;20269;-79
2023/08/10 06:07:42;;;;;;;8.00;7.80;;;11.70;99.90;;;;;;6373923;22;20197;-78
2023/08/10 06:10:09;;;;;;;7.90;7.70;;;11.80;99.90;;;;;;6360156;22;20219;-79
2023/08/10 06:12:37;;;;;;;8.20;8.00;;;11.90;99.90;;;;;;6351823;22;20203;-80
2023/08/10 06:15:05;;;;;;;8.10;7.90;;;11.90;99.90;;;;;;6352298;22;20196;-80
2023/08/10 06:17:33;;;;;;;8.00;7.80;;;12.00;99.90;;;;;;6352818;22;20215;-79
2023/08/10 06:20:02;;;;;;;8.10;7.90;;;12.10;99.90;;;;;;6356523;22;20196;-78
2023/08/10 06:22:36;;;;;;;8.40;8.20;;;12.30;99.90;;;;;;6356307;22;20252;-80
2023/08/10 06:25:06;;;;;;;8.27;8.07;;;12.40;99.90;;;;;;6353842;22;20210;-79
2023/08/10 06:27:33;;;;;;;8.23;8.03;;;12.50;99.90;;;;;;6354083;22;20207;-78
2023/08/10 06:30:01;;;;;;;7.90;7.70;;;12.60;99.90;;;;;;6352544;22;20192;-80
2023/08/10 06:32:31;;;;;;;7.90;7.70;;;12.70;99.90;;;;;;6352859;22;20196;-80
2023/08/10 06:35:01;;;;;;;8.00;7.80;;;12.80;99.90;;;;;;6351522;22;20192;-79
2023/08/10 06:37:28;;;;;;;8.13;7.93;;;12.90;99.90;;;;;;6351862;22;20278;-79
2023/08/10 06:39:57;;;;;;;8.20;8.00;;;13.00;99.90;;;;;;6350546;22;20246;-79
2023/08/10 06:42:24;;;;;;;8.57;8.37;;;13.10;99.90;;;;;;6350336;22;20268;-80
2023/08/10 06:44:51;;;;;;;8.40;8.20;;;13.30;99.90;;;;;;6350241;22;20196;-80
2023/08/10 06:47:18;;;;;;;8.30;8.10;;;13.40;99.90;;;;;;6352954;22;20244;-79
2023/08/10 06:49:45;;;;;;;8.60;8.40;;;13.50;99.90;;;;;;6355550;22;20264;-79
2023/08/10 06:52:12;;;;;;;8.80;8.60;;;13.60;99.90;;;;;;6352850;22;20214;-80
2023/08/10 06:54:42;;;;;;;9.20;8.90;;;13.70;99.90;;;;;;6354565;22;20271;-80
2023/08/10 06:57:13;;;;;;;9.77;9.47;;;13.70;99.90;;;;;;6355100;22;20199;-81
2023/08/10 06:59:40;;;;;;;9.80;9.50;;;13.80;99.90;;;;;;6354294;22;20290;-80
2023/08/10 07:02:07;;;;;;;9.90;9.60;;;14.00;99.90;;;;;;6354012;22;20256;-80
2023/08/10 07:04:35;;;;;;;9.90;9.60;;;14.10;99.90;;;;;;6353632;22;20192;-81
2023/08/10 07:07:02;;;;;;;10.20;9.90;;;14.20;99.90;;;;;;6354396;22;20226;-81
2023/08/10 07:09:29;;;;;;;10.30;10.00;;;14.30;99.90;;;;;;6354066;22;20201;-80
2023/08/10 07:11:56;;;;;;;10.23;9.93;;;14.40;99.90;;;;;;6357644;22;20283;-80
2023/08/10 07:14:25;;;;;;;10.30;10.00;;;14.60;99.90;;;;;;6351726;22;20204;-81
2023/08/10 07:16:52;;;;;;;10.25;9.95;;;14.70;99.90;;;;;;6352105;22;20207;-80
2023/08/10 07:19:19;;;;;;;10.57;10.27;;;14.90;99.90;;;;;;6353115;22;20199;-81
2023/08/10 07:21:48;;;;;;;10.00;9.70;;;15.00;99.90;;;;;;6352483;22;20208;-80
2023/08/10 07:24:15;;;;;;;10.40;10.10;;;15.20;99.90;;;;;;6352979;22;20210;-81
2023/08/10 07:26:42;;;;;;;10.50;10.20;;;15.30;99.90;;;;;;6353087;22;20227;-80
2023/08/10 07:29:10;;;;;;;10.60;10.30;;;15.40;99.90;;;;;;6354284;22;20200;-81
2023/08/10 07:31:38;;;;;;;10.48;10.18;;;15.50;99.90;;;;;;6365832;22;20216;-80
2023/08/10 07:34:05;;;;;;;10.70;10.40;;;15.60;99.90;;;;;;6348860;22;20222;-80
2023/08/10 07:36:33;;;;;;;10.75;10.45;;;15.70;99.90;;;;;;6349710;22;20287;-79
2023/08/10 07:39:00;;;;;;;11.30;10.90;;;15.70;99.90;;;;;;6350020;22;20188;-80
2023/08/10 07:41:27;;;;;;;11.23;10.82;;;15.80;99.90;;;;;;6350471;22;20238;-80
2023/08/10 07:43:54;;;;;;;11.10;10.80;;;15.90;99.90;;;;;;6352094;22;20255;-80
2023/08/10 07:46:21;;;;;;;11.27;10.88;;;16.00;99.90;;;;;;6351602;22;20217;-81
2023/08/10 07:48:49;;;;;;;11.40;11.00;;;16.20;99.90;;;;;;6352969;22;20260;-80
2023/08/10 07:51:16;;;;;;;10.30;10.00;;;16.40;99.90;;;;;;6354529;22;20207;-81
2023/08/10 07:53:44;;;;;;;10.50;10.20;;;16.50;99.90;;;;;;6352833;22;20192;-80
2023/08/10 07:56:11;;;;;;;10.57;10.27;;;16.60;99.90;;;;;;6353098;22;20196;-80
2023/08/10 07:58:38;;;;;;;10.38;10.07;;;16.50;99.90;;;;;;6356779;22;20251;-80
2023/08/10 08:01:07;;;;;;;10.43;10.13;;;16.60;99.90;;;;;;6351724;22;20204;-80
2023/08/10 08:03:35;;;;;;;10.57;10.27;;;16.80;99.90;;;;;;6349722;22;20227;-78
2023/08/10 08:06:03;;;;;;;11.10;10.80;;;16.90;99.90;;;;;;6348951;22;20256;-78
2023/08/10 08:08:30;;;;;;;11.13;10.82;;;17.00;99.90;;;;;;6348290;22;20285;-79
2023/08/10 08:10:57;;;;;;;11.30;10.95;;;17.20;99.90;;;;;;6348804;22;20281;-79
2023/08/10 08:13:24;;;;;;;11.20;10.90;;;17.30;99.90;;;;;;6349110;22;20275;-79
2023/08/10 08:15:52;;;;;;;10.70;10.40;;;17.50;99.90;;;;;;6349314;22;20246;-79
2023/08/10 08:18:44;;;;;;;10.93;10.63;;;17.60;99.90;;;;;;6350300;22;20196;-79
2023/08/10 08:21:15;;;;;;;10.52;10.23;;;17.80;99.90;;;;;;6355128;22;20204;-80
2023/08/10 08:23:42;;;;;;;10.50;10.20;;;18.10;99.90;;;;;;6352265;22;20691;-79
2023/08/10 08:26:10;;;;;;;10.27;9.98;;;18.20;99.90;;;;;;6351728;22;20250;-80
2023/08/10 08:28:37;;;;;;;10.40;10.10;;;18.30;99.90;;;;;;6349981;22;20275;-79
2023/08/10 08:31:05;;;;;;;10.40;10.10;;;18.40;99.90;;;;;;6349631;22;20196;-79
2023/08/10 08:33:36;;;;;;;10.45;10.15;;;18.40;99.90;;;;;;6349669;22;20196;-79
2023/08/10 08:36:03;;;;;;;10.88;10.57;;;18.50;99.90;;;;;;6349556;22;20195;-80
2023/08/10 08:38:32;;;;;;;11.10;10.80;;;18.70;99.90;;;;;;6349420;22;20202;-79
2023/08/10 08:41:03;;;;;;;11.00;10.70;;;18.80;99.90;;;;;;6349464;22;20212;-77
2023/08/10 08:43:31;;;;;;;10.48;10.18;;;19.10;99.90;;;;;;6349628;22;20196;-79
2023/08/10 08:45:59;;;;;;;10.73;10.43;;;19.20;99.90;;;;;;6349942;22;20220;-79
2023/08/10 08:48:28;;;;;;;10.40;10.10;;;19.30;99.90;;;;;;6359802;22;20222;-78
2023/08/10 08:50:55;;;;;;;10.48;10.18;;;19.50;99.90;;;;;;6353532;22;20215;-79
2023/08/10 08:53:24;;;;;;;10.10;9.80;;;19.70;99.90;;;;;;6352988;22;20203;-79
2023/08/10 08:55:52;;;;;;;10.60;10.30;;;20.00;99.90;;;;;;6352672;22;20189;-78
2023/08/10 08:58:19;;;;;;;10.60;10.30;;;20.30;99.90;;;;;;6351251;22;20255;-79
2023/08/10 09:00:50;;;;;;;10.73;10.43;;;20.50;99.90;;;;;;6349663;22;20271;-79
2023/08/10 09:03:17;;;;;;;10.82;10.52;;;20.70;99.90;;;;;;6349183;22;20219;-79
2023/08/10 09:05:46;;;;;;;10.80;10.50;;;20.70;99.90;;;;;;6349995;22;20188;-78
2023/08/10 09:08:16;;;;;;;11.05;10.75;;;20.90;99.90;;;;;;6349541;22;20199;-79
2023/08/10 09:10:45;;;;;;;11.02;10.73;;;21.10;99.90;;;;;;6349531;22;20287;-78
2023/08/10 09:13:18;;;;;;;11.60;11.20;;;21.20;99.90;;;;;;6349506;22;20198;-79
2023/08/10 09:15:46;;;;;;;11.30;11.00;;;21.40;99.90;;;;;;6349039;22;20188;-79
2023/08/10 09:18:13;;;;;;;11.30;11.00;;;21.60;99.90;;;;;;6350063;22;20224;-78
2023/08/10 09:20:40;;;;;;;11.27;10.98;;;21.60;99.90;;;;;;6347994;22;20223;-79
2023/08/10 09:23:10;;;;;;;11.40;11.10;;;21.60;99.90;;;;;;6348409;22;20196;-79
2023/08/10 09:25:43;;;;;;;11.30;11.00;;;21.70;99.90;;;;;;6348787;22;20270;-78
2023/08/10 09:28:12;;;;;;;10.82;10.52;;;21.90;99.90;;;;;;6349273;22;20188;-79
2023/08/10 15:33:22;;;;;;;10.50;10.20;;;29.70;99.90;;;;;;6219504;22;20214;-81
2023/08/10 15:35:49;;;;;;;10.45;10.15;;;29.40;99.90;;;;;;6224192;23;20187;-80
2023/08/10 15:38:16;;;;;;;10.23;9.93;;;29.40;99.90;;;;;;6226486;23;20214;-79
2023/08/10 15:40:43;;;;;;;10.32;10.02;;;29.60;99.90;;;;;;6223123;22;20198;-80
2023/08/10 15:43:10;;;;;;;10.23;9.93;;;29.90;99.90;;;;;;6224355;23;20245;-79
2023/08/10 15:45:38;;;;;;;10.20;9.90;;;30.10;99.90;;;;;;6225949;23;20255;-82
2023/08/10 15:48:06;;;;;;;10.15;9.85;;;30.40;99.90;;;;;;6226535;23;20218;-80
2023/08/10 15:50:35;;;;;;;10.20;9.90;;;30.40;99.90;;;;;;6223653;23;20203;-80
2023/08/10 15:53:02;;;;;;;10.30;10.00;;;30.40;99.90;;;;;;6228795;22;20195;-81
2023/08/10 15:55:29;;;;;;;10.10;9.80;;;30.30;99.90;;;;;;6226789;23;20195;-80
2023/08/10 15:57:56;;;;;;;10.40;10.10;;;30.40;99.90;;;;;;6225738;23;20203;-80
2023/08/10 16:00:23;;;;;;;10.63;10.32;;;30.60;99.90;;;;;;6226391;22;20199;-79
2023/08/10 16:02:51;;;;;;;10.20;9.90;;;30.60;99.90;;;;;;6224262;23;20222;-81
2023/08/10 16:05:19;;;;;;;10.07;9.77;;;30.90;99.90;;;;;;6224959;23;20283;-80
2023/08/10 16:07:48;;;;;;;9.77;9.48;;;31.10;99.90;;;;;;6225086;23;20195;-80
2023/08/10 16:10:15;;;;;;;9.77;9.48;;;31.20;99.90;;;;;;6226666;23;20205;-81
2023/08/10 16:12:42;;;;;;;9.80;9.50;;;31.30;99.90;;;;;;6226135;23;20211;-80
2023/08/10 16:15:10;;;;;;;9.75;9.45;;;31.30;99.90;;;;;;6225863;23;20203;-81
2023/08/10 16:17:37;;;;;;;9.70;9.40;;;31.20;99.90;;;;;;6226130;22;20191;-79
2023/08/10 16:20:05;;;;;;;9.70;9.40;;;31.20;99.90;;;;;;6225484;23;20201;-80
2023/08/10 16:22:33;;;;;;;10.05;9.75;;;30.90;99.90;;;;;;6232180;23;20221;-80
2023/08/10 16:25:02;;;;;;;10.10;9.80;;;30.90;99.90;;;;;;6227518;23;20202;-80
2023/08/10 16:27:29;;;;;;;10.38;10.07;;;30.90;99.90;;;;;;6226307;22;20221;-80
2023/08/10 16:29:56;;;;;;;10.00;9.70;;;30.90;99.90;;;;;;6227279;23;20210;-80
2023/08/10 16:32:23;;;;;;;10.30;10.00;;;30.90;99.90;;;;;;6226114;22;20215;-80
2023/08/10 16:34:50;;;;;;;10.10;9.80;;;31.00;99.90;;;;;;6226551;23;20217;-81
2023/08/10 16:37:19;;;;;;;10.07;9.77;;;31.00;99.90;;;;;;6225349;23;20254;-79
2023/08/10 16:39:46;;;;;;;10.00;9.70;;;31.10;99.90;;;;;;6225346;23;20221;-80
2023/08/10 16:42:14;;;;;;;9.85;9.55;;;31.10;99.90;;;;;;6227792;23;20258;-80
2023/08/10 16:44:42;;;;;;;9.70;9.40;;;31.10;99.90;;;;;;6225359;23;20259;-80
2023/08/10 16:47:09;;;;;;;10.20;9.90;;;31.30;99.90;;;;;;6224810;22;20389;-81
2023/08/10 16:49:36;;;;;;;9.52;9.23;;;31.30;99.90;;;;;;6222688;23;20206;-80
2023/08/10 16:52:04;;;;;;;9.50;9.20;;;31.40;99.90;;;;;;6222867;23;20211;-80
2023/08/10 16:54:31;;;;;;;10.10;9.80;;;31.60;99.90;;;;;;6223062;23;20274;-80
2023/08/10 16:56:58;;;;;;;10.07;9.77;;;31.70;99.90;;;;;;6222738;23;20248;-80
2023/08/10 16:59:26;;;;;;;9.90;9.60;;;31.70;99.90;;;;;;6222945;23;20199;-80
2023/08/10 17:01:54;;;;;;;10.13;9.82;;;31.90;99.90;;;;;;6226566;23;20282;-80
2023/08/10 17:04:21;;;;;;;10.00;9.70;;;32.10;99.90;;;;;;6226721;23;20206;-79
2023/08/10 17:06:48;;;;;;;9.95;9.65;;;32.20;99.90;;;;;;6224067;23;20194;-80
2023/08/10 17:09:17;;;;;;;9.88;9.57;;;32.30;99.90;;;;;;6225785;23;20198;-80
2023/08/10 17:11:45;;;;;;;10.02;9.73;;;32.40;99.90;;;;;;6226440;23;20207;-81
2023/08/10 17:14:13;;;;;;;9.90;9.60;;;32.50;99.90;;;;;;6230396;23;20210;-80
2023/08/10 17:16:41;;;;;;;9.90;9.60;;;32.60;99.90;;;;;;6224716;23;20199;-78
2023/08/10 17:19:08;;;;;;;9.88;9.57;;;32.90;99.90;;;;;;6222975;23;20290;-79
2023/08/10 17:21:36;;;;;;;10.20;9.90;;;33.00;99.90;;;;;;6223551;23;20217;-80
2023/08/10 17:24:03;;;;;;;10.00;9.70;;;33.00;99.90;;;;;;6224157;23;20272;-80
2023/08/10 17:26:30;;;;;;;9.80;9.50;;;33.10;99.90;;;;;;6226182;23;20221;-79
2023/08/10 17:28:57;;;;;;;9.50;9.20;;;33.00;99.90;;;;;;6224994;23;20209;-80
2023/08/10 17:31:25;;;;;;;9.80;9.50;;;33.00;99.90;;;;;;6224216;23;20198;-80
2023/08/10 17:33:55;;;;;;;9.50;9.20;;;32.90;99.90;;;;;;6224597;23;20199;-80
2023/08/10 17:36:22;;;;;;;9.50;9.20;;;32.70;99.90;;;;;;6223710;23;20192;-80
2023/08/10 17:38:49;;;;;;;9.70;9.40;;;32.50;99.90;;;;;;6223379;23;20228;-80
2023/08/10 17:41:16;;;;;;;9.80;9.50;;;32.40;99.90;;;;;;6230285;23;20217;-80
2023/08/10 17:43:43;;;;;;;10.20;9.90;;;32.10;99.90;;;;;;6226565;23;20214;-81
2023/08/10 17:46:15;;;;;;;10.20;9.90;;;31.80;99.90;;;;;;6227304;23;20255;-80
2023/08/10 17:48:42;;;;;;;10.20;9.90;;;31.40;99.90;;;;;;6227361;23;20240;-80
2023/08/10 17:51:11;;;;;;;10.00;9.70;;;30.90;99.90;;;;;;6228561;23;20294;-80
2023/08/10 17:53:38;;;;;;;9.90;9.60;;;30.70;99.90;;;;;;6227273;23;20191;-81
2023/08/10 17:56:05;;;;;;;10.05;9.75;;;30.40;99.90;;;;;;6228220;23;20202;-79
2023/08/10 17:58:32;;;;;;;9.70;9.40;;;30.00;99.90;;;;;;6228331;23;20195;-79
2023/08/10 18:01:07;;;;;;;9.70;9.40;;;29.60;99.90;;;;;;6232527;23;20199;-80
2023/08/10 18:03:34;;;;;;;9.68;9.38;;;29.10;99.90;;;;;;6231855;23;20214;-81
2023/08/10 18:06:01;;;;;;;9.70;9.40;;;28.70;99.90;;;;;;6229475;23;20199;-80
2023/08/10 18:08:30;;;;;;;9.45;9.15;;;28.40;99.90;;;;;;6224890;23;20199;-81
2023/08/10 18:10:57;;;;;;;9.60;9.30;;;28.00;99.90;;;;;;6224304;23;20235;-81
2023/08/10 18:13:24;;;;;;;9.80;9.50;;;27.80;99.90;;;;;;6225947;23;20213;-79
2023/08/10 18:15:51;;;;;;;10.00;9.70;;;27.40;99.90;;;;;;6225186;23;20250;-79
2023/08/10 18:18:18;;;;;;;10.10;9.80;;;27.20;99.90;;;;;;6224280;23;20197;-80
2023/08/10 18:20:46;;;;;;;10.00;9.70;;;27.00;99.90;;;;;;6226570;23;20199;-80
2023/08/10 18:23:15;;;;;;;10.10;9.80;;;26.80;99.90;;;;;;6230581;23;20217;-80
2023/08/10 18:25:43;;;;;;;10.25;9.95;;;26.50;99.90;;;;;;6226627;22;20207;-80
2023/08/10 18:28:10;;;;;;;10.15;9.85;;;26.30;99.90;;;;;;6226424;23;20280;-81
2023/08/10 18:30:39;;;;;;;10.40;10.10;;;26.10;99.90;;;;;;6226284;23;20206;-80
2023/08/10 18:33:06;;;;;;;10.40;10.10;;;25.90;99.90;;;;;;6226993;23;20210;-81
2023/08/10 18:35:33;;;;;;;10.35;10.05;;;25.60;99.90;;;;;;6227301;23;20207;-81
2023/08/10 18:38:00;;;;;;;10.55;10.25;;;25.50;99.90;;;;;;6229369;22;20218;-81
2023/08/10 18:40:37;;;;;;;10.40;10.10;;;25.20;99.90;;;;;;6226935;22;20203;-80
2023/08/10 18:43:06;;;;;;;10.20;9.90;;;25.10;99.90;;;;;;6228927;22;20266;-80
2023/08/10 18:45:36;;;;;;;10.15;9.85;;;24.90;99.90;;;;;;6228277;23;20195;-81
2023/08/10 18:48:04;;;;;;;10.35;10.05;;;24.70;99.90;;;;;;6230300;23;20191;-81
2023/08/10 18:50:32;;;;;;;10.02;9.73;;;24.50;99.90;;;;;;6226963;22;20195;-80
2023/08/10 18:53:00;;;;;;;10.00;9.70;;;24.30;99.90;;;;;;6228342;23;20234;-81
2023/08/10 18:55:27;;;;;;;10.00;9.70;;;24.10;99.90;;;;;;6230347;23;20218;-81
2023/08/10 18:57:54;;;;;;;9.90;9.60;;;23.90;99.90;;;;;;6230679;23;20195;-80
2023/08/10 19:00:23;;;;;;;9.68;9.38;;;23.80;99.90;;;;;;6229520;23;20264;-81
2023/08/10 19:02:50;;;;;;;10.18;9.88;;;23.60;99.90;;;;;;6232420;22;20286;-80
2023/08/10 19:05:17;;;;;;;10.13;9.82;;;23.40;99.90;;;;;;6229079;23;20195;-80
2023/08/10 19:07:46;;;;;;;10.20;9.90;;;23.30;99.90;;;;;;6230468;23;20202;-81
2023/08/10 19:10:13;;;;;;;9.75;9.45;;;23.10;99.90;;;;;;6228904;23;20184;-81
2023/08/10 19:12:40;;;;;;;9.95;9.65;;;22.90;99.90;;;;;;6228157;23;20233;-81
2023/08/10 19:15:11;;;;;;;9.40;9.10;;;22.80;99.90;;;;;;6227706;22;20242;-79
2023/08/10 19:17:40;;;;;;;9.50;9.20;;;22.70;99.90;;;;;;6228975;23;20218;-80
2023/08/10 19:20:08;;;;;;;9.50;9.20;;;22.50;99.90;;;;;;6229981;22;20286;-81
2023/08/10 19:22:36;;;;;;;9.88;9.57;;;22.30;99.90;;;;;;6229177;23;20211;-80
2023/08/10 19:25:03;;;;;;;9.25;8.95;;;22.20;99.90;;;;;;6229978;23;20214;-80
2023/08/10 19:27:30;;;;;;;9.40;9.10;;;22.10;99.90;;;;;;6227484;23;20195;-80
2023/08/10 19:29:57;;;;;;;9.10;8.90;;;22.00;99.90;;;;;;6229522;23;20195;-81
2023/08/10 19:32:24;;;;;;;8.98;8.77;;;21.80;99.90;;;;;;6226577;23;20267;-81
2023/08/10 19:34:53;;;;;;;9.00;8.80;;;21.70;99.90;;;;;;6228707;23;20214;-81
2023/08/10 19:37:20;;;;;;;8.93;8.73;;;21.60;99.90;;;;;;6227132;22;20202;-80
2023/08/10 19:39:48;;;;;;;8.70;8.50;;;21.40;99.90;;;;;;6233421;23;20218;-80
2023/08/10 19:42:15;;;;;;;9.27;9.05;;;21.30;99.90;;;;;;6231723;23;20206;-80
2023/08/10 19:44:42;;;;;;;9.40;9.10;;;21.10;99.90;;;;;;6229972;23;20278;-81
2023/08/10 19:47:10;;;;;;;9.30;9.00;;;20.90;99.90;;;;;;6231203;23;20191;-81
2023/08/10 19:49:37;;;;;;;9.50;9.20;;;20.80;99.90;;;;;;6229460;23;20206;-80
2023/08/10 19:52:07;;;;;;;9.45;9.15;;;20.70;99.90;;;;;;6227432;23;20207;-81
2023/08/10 19:54:34;;;;;;;9.80;9.50;;;20.60;99.90;;;;;;6229999;23;20203;-80
2023/08/10 19:57:01;;;;;;;9.30;9.00;;;20.40;99.90;;;;;;6230148;23;20191;-80
2023/08/10 19:59:28;;;;;;;9.40;9.10;;;20.30;99.90;;;;;;6227237;23;20255;-80
2023/08/10 20:01:55;;;;;;;9.30;9.00;;;20.20;99.90;;;;;;6228155;22;20203;-82
2023/08/10 20:04:22;;;;;;;9.40;9.10;;;20.10;99.90;;;;;;6230003;22;20218;-80
2023/08/10 20:06:50;;;;;;;9.38;9.07;;;20.00;99.90;;;;;;6228799;23;20210;-81
2023/08/10 20:09:20;;;;;;;9.70;9.40;;;19.90;99.90;;;;;;6227607;23;20206;-81
2023/08/10 20:11:47;;;;;;;9.60;9.30;;;19.80;99.90;;;;;;6226558;23;20265;-80
2023/08/10 20:14:14;;;;;;;9.57;9.27;;;19.70;99.90;;;;;;6229069;22;20195;-81
2023/08/10 20:16:41;;;;;;;9.57;9.27;;;19.60;99.90;;;;;;6229859;23;20195;-79
2023/08/10 20:19:08;;;;;;;9.50;9.20;;;19.50;99.90;;;;;;6230085;23;20199;-79
2023/08/10 20:21:36;;;;;;;9.50;9.20;;;19.40;99.90;;;;;;6228777;23;20225;-80
2023/08/10 20:24:04;;;;;;;9.40;9.10;;;19.30;99.90;;;;;;6229922;23;20213;-82
2023/08/10 20:26:33;;;;;;;9.50;9.20;;;19.20;99.90;;;;;;6233760;23;20207;-81
2023/08/10 20:29:00;;;;;;;9.77;9.48;;;19.10;99.90;;;;;;6234301;23;20195;-80
2023/08/10 20:31:27;;;;;;;9.65;9.35;;;19.10;99.90;;;;;;6233071;23;20262;-79
2023/08/10 20:33:55;;;;;;;10.18;9.88;;;19.00;99.90;;;;;;6232157;23;20191;-80
2023/08/10 20:36:22;;;;;;;10.20;9.90;;;18.90;99.90;;;;;;6233262;23;20235;-80
2023/08/10 20:38:49;;;;;;;9.93;9.63;;;18.80;99.90;;;;;;6235275;23;20218;-80
2023/08/10 20:41:16;;;;;;;10.15;9.85;;;18.80;99.90;;;;;;6237586;23;20179;-81
2023/08/10 20:43:45;;;;;;;10.00;9.70;;;18.70;99.90;;;;;;6238995;22;20221;-80
2023/08/10 20:46:30;;;;;;;10.23;9.93;;;18.60;99.90;;;;;;6242117;22;20178;-81
2023/08/10 20:48:59;;;;;;;10.45;10.15;;;18.50;99.90;;;;;;6241286;22;20198;-80
2023/08/10 20:51:26;;;;;;;10.00;9.70;;;18.50;99.90;;;;;;6241202;23;20203;-78
2023/08/10 20:53:53;;;;;;;10.50;10.20;;;18.40;99.90;;;;;;6240713;22;20194;-80
2023/08/10 20:56:21;;;;;;;10.00;9.70;;;18.30;99.90;;;;;;6236570;23;20229;-81
2023/08/10 20:58:51;;;;;;;10.02;9.73;;;18.20;99.90;;;;;;6234974;23;20198;-79
2023/08/10 21:01:18;;;;;;;10.38;10.07;;;18.10;99.90;;;;;;6234270;23;20217;-80
2023/08/10 21:03:45;;;;;;;10.38;10.07;;;18.00;99.90;;;;;;6235895;23;20234;-81
2023/08/10 21:06:13;;;;;;;10.50;10.20;;;17.90;99.90;;;;;;6236742;23;20206;-81
2023/08/10 21:08:44;;;;;;;10.48;10.18;;;17.90;99.90;;;;;;6236399;22;20213;-80
2023/08/10 21:11:12;;;;;;;10.20;9.90;;;17.80;99.90;;;;;;6236373;23;20198;-82
2023/08/10 21:13:40;;;;;;;10.35;10.05;;;17.70;99.90;;;;;;6236542;23;20215;-80
2023/08/10 21:16:10;;;;;;;10.60;10.30;;;17.60;99.90;;;;;;6236222;23;20202;-81
2023/08/10 21:18:37;;;;;;;10.70;10.40;;;17.50;99.90;;;;;;6234986;23;20191;-81
2023/08/10 21:21:04;;;;;;;10.63;10.32;;;17.40;99.90;;;;;;6234361;23;20190;-80
2023/08/10 21:23:32;;;;;;;10.40;10.10;;;17.30;99.90;;;;;;6235180;23;20226;-81
2023/08/10 21:25:59;;;;;;;10.70;10.40;;;17.20;99.90;;;;;;6234649;23;20217;-80
2023/08/10 21:28:26;;;;;;;10.73;10.43;;;17.10;99.90;;;;;;6237064;22;20202;-80
2023/08/10 21:30:54;;;;;;;10.30;10.00;;;17.00;99.90;;;;;;6238607;23;20234;-81
